sensor_id;sensor_type;location;lat;lon;timestamp;temperature;humidity
51486;DHT22;37565;51.352;6.412;2023-05-16T17:26:53;20.90;85.30
51486;DHT22;37565;51.352;6.412;2023-05-16T17:29:22;20.90;85.40
51486;DHT22;37565;51.352;6.412;2023-05-16T17:31:50;20.90;84.90
51486;DHT22;37565;51.352;6.412;2023-05-16T17:34:18;21.00;85.50
51486;DHT22;37565;51.352;6.412;2023-05-16T17:36:46;21.00;85.40
51486;DHT22;37565;51.352;6.412;2023-05-16T17:39:14;21.10;85.70
51486;DHT22;37565;51.352;6.412;2023-05-16T17:41:42;21.10;85.50
51486;DHT22;37565;51.352;6.412;2023-05-16T17:44:12;21.10;85.60
51486;DHT22;37565;51.352;6.412;2023-05-16T17:46:40;21.10;86.30
51486;DHT22;37565;51.352;6.412;2023-05-16T17:49:08;21.10;85.30
51486;DHT22;37565;51.352;6.412;2023-05-16T17:51:47;21.10;85.70
51486;DHT22;37565;51.352;6.412;2023-05-16T17:54:16;21.10;85.20
51486;DHT22;37565;51.352;6.412;2023-05-16T17:56:44;21.10;85.60
51486;DHT22;37565;51.352;6.412;2023-05-16T17:59:14;21.10;85.00
51486;DHT22;37565;51.352;6.412;2023-05-16T18:01:42;21.10;86.10
51486;DHT22;37565;51.352;6.412;2023-05-16T18:04:10;21.10;85.90
51486;DHT22;37565;51.352;6.412;2023-05-16T18:06:39;21.10;86.40
51486;DHT22;37565;51.352;6.412;2023-05-16T18:09:08;21.10;85.50
51486;DHT22;37565;51.352;6.412;2023-05-16T18:11:38;21.10;86.10
51486;DHT22;37565;51.352;6.412;2023-05-16T18:14:07;21.10;86.60
51486;DHT22;37565;51.352;6.412;2023-05-16T18:16:37;21.10;87.10
51486;DHT22;37565;51.352;6.412;2023-05-16T18:19:05;21.10;86.80
51486;DHT22;37565;51.352;6.412;2023-05-16T18:21:34;21.10;86.80
51486;DHT22;37565;51.352;6.412;2023-05-16T18:24:04;21.10;86.80
51486;DHT22;37565;51.352;6.412;2023-05-16T18:26:34;21.10;86.20
51486;DHT22;37565;51.352;6.412;2023-05-16T18:29:02;21.10;86.40
51486;DHT22;37565;51.352;6.412;2023-05-16T18:31:30;21.10;85.20
51486;DHT22;37565;51.352;6.412;2023-05-16T18:34:00;21.10;87.00
51486;DHT22;37565;51.352;6.412;2023-05-16T18:36:30;21.10;85.50
51486;DHT22;37565;51.352;6.412;2023-05-16T18:38:58;21.10;86.30
51486;DHT22;37565;51.352;6.412;2023-05-16T18:41:26;21.10;86.70
51486;DHT22;37565;51.352;6.412;2023-05-16T18:43:54;21.10;85.90
51486;DHT22;37565;51.352;6.412;2023-05-16T18:46:22;21.10;87.50
51486;DHT22;37565;51.352;6.412;2023-05-16T18:48:49;21.10;87.00
51486;DHT22;37565;51.352;6.412;2023-05-16T18:51:19;21.10;87.50
51486;DHT22;37565;51.352;6.412;2023-05-16T18:53:47;21.10;87.10
51486;DHT22;37565;51.352;6.412;2023-05-16T18:56:15;21.10;86.50
51486;DHT22;37565;51.352;6.412;2023-05-16T18:58:43;21.10;85.80
51486;DHT22;37565;51.352;6.412;2023-05-16T19:01:12;21.10;87.60
51486;DHT22;37565;51.352;6.412;2023-05-16T19:03:40;21.10;87.90
51486;DHT22;37565;51.352;6.412;2023-05-16T19:06:08;21.10;87.50
51486;DHT22;37565;51.352;6.412;2023-05-16T19:08:38;21.10;87.70
51486;DHT22;37565;51.352;6.412;2023-05-16T19:11:14;21.10;88.40
51486;DHT22;37565;51.352;6.412;2023-05-16T19:13:42;21.10;88.10
51486;DHT22;37565;51.352;6.412;2023-05-16T19:16:10;21.10;87.50
51486;DHT22;37565;51.352;6.412;2023-05-16T19:18:38;21.10;89.20
51486;DHT22;37565;51.352;6.412;2023-05-16T19:21:07;21.10;87.70
51486;DHT22;37565;51.352;6.412;2023-05-16T19:23:37;21.10;88.60
51486;DHT22;37565;51.352;6.412;2023-05-16T19:26:06;21.10;88.50
51486;DHT22;37565;51.352;6.412;2023-05-16T19:28:34;21.10;87.80
51486;DHT22;37565;51.352;6.412;2023-05-16T19:31:03;21.10;88.30
51486;DHT22;37565;51.352;6.412;2023-05-16T19:33:31;21.00;87.70
51486;DHT22;37565;51.352;6.412;2023-05-16T19:35:59;21.10;89.50
51486;DHT22;37565;51.352;6.412;2023-05-16T19:38:27;21.10;88.40
51486;DHT22;37565;51.352;6.412;2023-05-16T19:40:56;21.10;89.00
51486;DHT22;37565;51.352;6.412;2023-05-16T19:43:25;21.10;89.30
51486;DHT22;37565;51.352;6.412;2023-05-16T19:45:53;21.10;89.00
51486;DHT22;37565;51.352;6.412;2023-05-16T19:48:21;21.10;89.00
51486;DHT22;37565;51.352;6.412;2023-05-16T19:50:49;21.10;90.30
51486;DHT22;37565;51.352;6.412;2023-05-16T19:53:17;21.10;90.20
51486;DHT22;37565;51.352;6.412;2023-05-16T19:55:45;21.10;89.70
51486;DHT22;37565;51.352;6.412;2023-05-16T19:58:16;21.10;89.70
51486;DHT22;37565;51.352;6.412;2023-05-16T20:00:44;21.10;88.60
51486;DHT22;37565;51.352;6.412;2023-05-16T20:03:12;21.10;90.20
51486;DHT22;37565;51.352;6.412;2023-05-16T20:05:40;21.10;89.30
51486;DHT22;37565;51.352;6.412;2023-05-16T20:08:09;21.10;90.10
51486;DHT22;37565;51.352;6.412;2023-05-16T20:10:37;21.10;90.60
51486;DHT22;37565;51.352;6.412;2023-05-16T20:13:05;21.10;90.90
51486;DHT22;37565;51.352;6.412;2023-05-16T20:15:35;21.10;90.80
51486;DHT22;37565;51.352;6.412;2023-05-16T20:18:03;21.10;90.50
51486;DHT22;37565;51.352;6.412;2023-05-16T20:20:32;21.10;89.90
51486;DHT22;37565;51.352;6.412;2023-05-16T20:23:00;21.10;90.40
51486;DHT22;37565;51.352;6.412;2023-05-16T20:25:27;21.10;89.60
51486;DHT22;37565;51.352;6.412;2023-05-16T20:27:57;21.10;90.30
51486;DHT22;37565;51.352;6.412;2023-05-16T20:30:25;21.10;90.60
51486;DHT22;37565;51.352;6.412;2023-05-16T20:32:55;21.10;90.30
51486;DHT22;37565;51.352;6.412;2023-05-16T20:35:23;21.10;90.20
51486;DHT22;37565;51.352;6.412;2023-05-16T20:37:51;21.10;90.40
51486;DHT22;37565;51.352;6.412;2023-05-16T20:40:20;21.10;90.50
51486;DHT22;37565;51.352;6.412;2023-05-16T20:42:48;21.10;90.60
51486;DHT22;37565;51.352;6.412;2023-05-16T20:45:16;21.10;90.80
51486;DHT22;37565;51.352;6.412;2023-05-16T20:47:44;21.10;90.60
51486;DHT22;37565;51.352;6.412;2023-05-16T20:50:14;21.10;90.50
51486;DHT22;37565;51.352;6.412;2023-05-16T20:52:42;21.10;90.30
51486;DHT22;37565;51.352;6.412;2023-05-16T20:55:10;21.10;90.70
51486;DHT22;37565;51.352;6.412;2023-05-16T20:57:38;21.00;90.30
51486;DHT22;37565;51.352;6.412;2023-05-16T21:00:10;21.10;90.70
51486;DHT22;37565;51.352;6.412;2023-05-16T21:02:38;21.00;90.10
51486;DHT22;37565;51.352;6.412;2023-05-16T21:05:06;21.00;90.90
51486;DHT22;37565;51.352;6.412;2023-05-16T21:07:51;21.00;90.70
51486;DHT22;37565;51.352;6.412;2023-05-16T21:10:20;21.00;90.10
51486;DHT22;37565;51.352;6.412;2023-05-16T21:12:48;21.00;90.40
51486;DHT22;37565;51.352;6.412;2023-05-16T21:15:16;21.00;90.60
51486;DHT22;37565;51.352;6.412;2023-05-16T21:17:47;21.00;90.60
51486;DHT22;37565;51.352;6.412;2023-05-16T21:20:16;21.00;90.60
51486;DHT22;37565;51.352;6.412;2023-05-16T21:22:44;21.00;90.80
51486;DHT22;37565;51.352;6.412;2023-05-16T21:25:13;21.00;90.60
51486;DHT22;37565;51.352;6.412;2023-05-16T21:27:41;21.00;90.40
51486;DHT22;37565;51.352;6.412;2023-05-16T21:30:10;21.00;90.80
51486;DHT22;37565;51.352;6.412;2023-05-16T21:32:38;21.00;90.90
51486;DHT22;37565;51.352;6.412;2023-05-16T21:35:06;21.00;90.60
51486;DHT22;37565;51.352;6.412;2023-05-16T21:37:34;21.00;90.60
51486;DHT22;37565;51.352;6.412;2023-05-16T21:40:03;20.90;90.50
51486;DHT22;37565;51.352;6.412;2023-05-16T21:42:33;20.90;90.40
51486;DHT22;37565;51.352;6.412;2023-05-16T21:45:01;20.90;90.50
51486;DHT22;37565;51.352;6.412;2023-05-16T21:47:29;20.90;90.50
51486;DHT22;37565;51.352;6.412;2023-05-16T21:49:57;20.90;90.10
